sensor_id;sensor_type;location;lat;lon;timestamp;temperature;humidity
22035;DHT22;11181;51.002;4.356;2022-10-16T00:00:06;16.20;99.90
22035;DHT22;11181;51.002;4.356;2022-10-16T00:02:33;16.10;99.90
22035;DHT22;11181;51.002;4.356;2022-10-16T00:05:00;15.90;99.90
22035;DHT22;11181;51.002;4.356;2022-10-16T00:07:27;15.90;99.90
22035;DHT22;11181;51.002;4.356;2022-10-16T00:09:55;16.00;99.90
22035;DHT22;11181;51.002;4.356;2022-10-16T00:12:22;15.90;99.90
22035;DHT22;11181;51.002;4.356;2022-10-16T00:14:49;15.90;99.90
22035;DHT22;11181;51.002;4.356;2022-10-16T00:17:16;15.90;99.90
22035;DHT22;11181;51.002;4.356;2022-10-16T00:19:43;15.90;99.90
22035;DHT22;11181;51.002;4.356;2022-10-16T00:22:09;15.90;99.90
22035;DHT22;11181;51.002;4.356;2022-10-16T00:24:36;16.00;99.90
22035;DHT22;11181;51.002;4.356;2022-10-16T00:27:05;15.90;99.90
22035;DHT22;11181;51.002;4.356;2022-10-16T00:29:31;15.80;99.90
22035;DHT22;11181;51.002;4.356;2022-10-16T00:31:58;15.80;99.90
22035;DHT22;11181;51.002;4.356;2022-10-16T00:34:25;15.80;99.90
22035;DHT22;11181;51.002;4.356;2022-10-16T00:36:52;15.90;99.90
22035;DHT22;11181;51.002;4.356;2022-10-16T00:39:19;15.80;99.90
22035;DHT22;11181;51.002;4.356;2022-10-16T00:41:46;15.80;99.90
22035;DHT22;11181;51.002;4.356;2022-10-16T00:44:43;15.80;99.90
22035;DHT22;11181;51.002;4.356;2022-10-16T00:47:15;15.70;99.90
22035;DHT22;11181;51.002;4.356;2022-10-16T00:49:44;15.60;99.90
22035;DHT22;11181;51.002;4.356;2022-10-16T00:52:12;15.70;99.90
22035;DHT22;11181;51.002;4.356;2022-10-16T00:54:39;15.60;99.90
22035;DHT22;11181;51.002;4.356;2022-10-16T00:57:07;15.50;99.90
22035;DHT22;11181;51.002;4.356;2022-10-16T00:59:36;15.50;99.90
22035;DHT22;11181;51.002;4.356;2022-10-16T01:02:05;15.60;99.90
22035;DHT22;11181;51.002;4.356;2022-10-16T01:04:35;15.40;99.90
22035;DHT22;11181;51.002;4.356;2022-10-16T01:07:09;15.20;99.90
22035;DHT22;11181;51.002;4.356;2022-10-16T01:09:47;15.30;99.90
22035;DHT22;11181;51.002;4.356;2022-10-16T01:12:20;15.30;99.90
22035;DHT22;11181;51.002;4.356;2022-10-16T01:14:53;15.30;99.90
22035;DHT22;11181;51.002;4.356;2022-10-16T01:17:25;15.30;99.90
22035;DHT22;11181;51.002;4.356;2022-10-16T01:20:06;15.30;99.90
22035;DHT22;11181;51.002;4.356;2022-10-16T01:22:42;15.20;99.90
22035;DHT22;11181;51.002;4.356;2022-10-16T01:25:15;15.30;99.90
22035;DHT22;11181;51.002;4.356;2022-10-16T01:27:46;15.30;99.90
22035;DHT22;11181;51.002;4.356;2022-10-16T01:30:16;15.30;99.90
22035;DHT22;11181;51.002;4.356;2022-10-16T01:32:48;15.30;99.90
22035;DHT22;11181;51.002;4.356;2022-10-16T01:35:21;15.40;99.90
22035;DHT22;11181;51.002;4.356;2022-10-16T01:37:51;15.30;99.90
22035;DHT22;11181;51.002;4.356;2022-10-16T01:40:24;15.50;99.90
22035;DHT22;11181;51.002;4.356;2022-10-16T01:42:56;15.40;99.90
22035;DHT22;11181;51.002;4.356;2022-10-16T01:45:24;15.20;99.90
22035;DHT22;11181;51.002;4.356;2022-10-16T01:47:52;15.30;99.90
22035;DHT22;11181;51.002;4.356;2022-10-16T01:50:20;15.20;99.90
22035;DHT22;11181;51.002;4.356;2022-10-16T01:52:49;15.20;99.90
22035;DHT22;11181;51.002;4.356;2022-10-16T01:55:22;15.20;99.90
22035;DHT22;11181;51.002;4.356;2022-10-16T01:57:53;15.30;99.90
22035;DHT22;11181;51.002;4.356;2022-10-16T02:00:22;15.20;99.90
22035;DHT22;11181;51.002;4.356;2022-10-16T02:02:53;15.20;99.90
22035;DHT22;11181;51.002;4.356;2022-10-16T02:05:23;15.30;99.90
22035;DHT22;11181;51.002;4.356;2022-10-16T02:07:51;15.20;99.90
22035;DHT22;11181;51.002;4.356;2022-10-16T02:10:18;15.20;99.90
22035;DHT22;11181;51.002;4.356;2022-10-16T02:12:49;15.20;99.90
22035;DHT22;11181;51.002;4.356;2022-10-16T02:15:18;15.00;99.90
22035;DHT22;11181;51.002;4.356;2022-10-16T02:17:45;15.10;99.90
22035;DHT22;11181;51.002;4.356;2022-10-16T02:20:12;15.10;99.90
22035;DHT22;11181;51.002;4.356;2022-10-16T02:22:42;14.90;99.90
22035;DHT22;11181;51.002;4.356;2022-10-16T02:25:15;15.00;99.90
22035;DHT22;11181;51.002;4.356;2022-10-16T02:27:47;15.00;99.90
22035;DHT22;11181;51.002;4.356;2022-10-16T02:30:22;15.00;99.90
22035;DHT22;11181;51.002;4.356;2022-10-16T02:32:52;15.00;99.90
22035;DHT22;11181;51.002;4.356;2022-10-16T02:35:21;15.10;99.90
22035;DHT22;11181;51.002;4.356;2022-10-16T02:37:50;15.00;99.90
22035;DHT22;11181;51.002;4.356;2022-10-16T02:40:18;15.00;99.90
22035;DHT22;11181;51.002;4.356;2022-10-16T02:42:50;15.00;99.90
22035;DHT22;11181;51.002;4.356;2022-10-16T02:45:17;14.90;99.90
22035;DHT22;11181;51.002;4.356;2022-10-16T02:47:46;15.10;99.90
22035;DHT22;11181;51.002;4.356;2022-10-16T02:50:13;15.10;99.90
22035;DHT22;11181;51.002;4.356;2022-10-16T02:52:40;15.20;99.90
22035;DHT22;11181;51.002;4.356;2022-10-16T02:55:07;15.20;99.90
22035;DHT22;11181;51.002;4.356;2022-10-16T02:57:34;15.20;99.90
22035;DHT22;11181;51.002;4.356;2022-10-16T03:00:03;15.20;99.90
22035;DHT22;11181;51.002;4.356;2022-10-16T03:02:30;15.10;99.90
22035;DHT22;11181;51.002;4.356;2022-10-16T03:04:58;15.00;99.90
22035;DHT22;11181;51.002;4.356;2022-10-16T03:07:25;15.00;99.90
22035;DHT22;11181;51.002;4.356;2022-10-16T03:09:52;15.00;99.90
22035;DHT22;11181;51.002;4.356;2022-10-16T03:12:20;15.10;99.90
22035;DHT22;11181;51.002;4.356;2022-10-16T03:14:47;15.10;99.90
22035;DHT22;11181;51.002;4.356;2022-10-16T03:17:14;15.00;99.90
22035;DHT22;11181;51.002;4.356;2022-10-16T03:19:42;15.00;99.90
22035;DHT22;11181;51.002;4.356;2022-10-16T03:22:10;15.00;99.90
22035;DHT22;11181;51.002;4.356;2022-10-16T03:24:37;14.90;99.90
22035;DHT22;11181;51.002;4.356;2022-10-16T03:27:04;15.00;99.90
22035;DHT22;11181;51.002;4.356;2022-10-16T03:29:31;14.90;99.90
22035;DHT22;11181;51.002;4.356;2022-10-16T03:31:59;14.90;99.90
22035;DHT22;11181;51.002;4.356;2022-10-16T03:34:25;14.90;99.90
22035;DHT22;11181;51.002;4.356;2022-10-16T03:36:53;14.90;99.90
22035;DHT22;11181;51.002;4.356;2022-10-16T03:39:21;14.90;99.90
22035;DHT22;11181;51.002;4.356;2022-10-16T03:41:48;15.10;99.90
22035;DHT22;11181;51.002;4.356;2022-10-16T03:44:15;15.20;99.90
22035;DHT22;11181;51.002;4.356;2022-10-16T03:46:42;15.20;99.90
22035;DHT22;11181;51.002;4.356;2022-10-16T03:49:09;15.20;99.90
22035;DHT22;11181;51.002;4.356;2022-10-16T03:51:36;15.20;99.90
22035;DHT22;11181;51.002;4.356;2022-10-16T03:54:03;15.20;99.90
22035;DHT22;11181;51.002;4.356;2022-10-16T03:56:31;15.30;99.90
22035;DHT22;11181;51.002;4.356;2022-10-16T03:58:58;15.40;99.90
22035;DHT22;11181;51.002;4.356;2022-10-16T04:01:25;15.40;99.90
22035;DHT22;11181;51.002;4.356;2022-10-16T04:03:52;15.30;99.90
22035;DHT22;11181;51.002;4.356;2022-10-16T04:06:19;15.20;99.90
22035;DHT22;11181;51.002;4.356;2022-10-16T04:08:45;15.20;99.90
22035;DHT22;11181;51.002;4.356;2022-10-16T04:11:12;15.10;99.90
22035;DHT22;11181;51.002;4.356;2022-10-16T04:13:41;15.00;99.90
22035;DHT22;11181;51.002;4.356;2022-10-16T04:16:08;15.10;99.90
22035;DHT22;11181;51.002;4.356;2022-10-16T04:18:34;15.10;99.90
22035;DHT22;11181;51.002;4.356;2022-10-16T04:21:04;15.10;99.90
22035;DHT22;11181;51.002;4.356;2022-10-16T04:23:32;15.10;99.90
22035;DHT22;11181;51.002;4.356;2022-10-16T04:25:59;15.00;99.90
22035;DHT22;11181;51.002;4.356;2022-10-16T04:28:26;15.00;99.90
22035;DHT22;11181;51.002;4.356;2022-10-16T04:30:55;15.10;99.90
22035;DHT22;11181;51.002;4.356;2022-10-16T04:33:22;15.20;99.90
22035;DHT22;11181;51.002;4.356;2022-10-16T04:35:55;15.20;99.90
22035;DHT22;11181;51.002;4.356;2022-10-16T04:38:22;15.20;99.90
22035;DHT22;11181;51.002;4.356;2022-10-16T04:40:49;15.10;99.90
22035;DHT22;11181;51.002;4.356;2022-10-16T04:43:16;15.10;99.90
22035;DHT22;11181;51.002;4.356;2022-10-16T04:45:42;15.10;99.90
22035;DHT22;11181;51.002;4.356;2022-10-16T04:48:11;15.20;99.90
22035;DHT22;11181;51.002;4.356;2022-10-16T04:50:38;15.30;99.90
22035;DHT22;11181;51.002;4.356;2022-10-16T04:53:05;15.30;99.90
22035;DHT22;11181;51.002;4.356;2022-10-16T04:55:32;15.10;99.90
22035;DHT22;11181;51.002;4.356;2022-10-16T04:57:59;15.10;99.90
22035;DHT22;11181;51.002;4.356;2022-10-16T05:00:26;15.10;99.90
22035;DHT22;11181;51.002;4.356;2022-10-16T05:02:53;15.10;99.90
22035;DHT22;11181;51.002;4.356;2022-10-16T05:05:21;15.10;99.90
22035;DHT22;11181;51.002;4.356;2022-10-16T05:07:48;15.10;99.90
22035;DHT22;11181;51.002;4.356;2022-10-16T05:10:15;15.00;99.90
22035;DHT22;11181;51.002;4.356;2022-10-16T05:12:42;15.00;99.90
22035;DHT22;11181;51.002;4.356;2022-10-16T05:15:10;15.00;99.90
22035;DHT22;11181;51.002;4.356;2022-10-16T05:17:37;14.90;99.90
22035;DHT22;11181;51.002;4.356;2022-10-16T05:20:05;14.80;99.90
22035;DHT22;11181;51.002;4.356;2022-10-16T05:22:33;14.70;99.90
22035;DHT22;11181;51.002;4.356;2022-10-16T05:25:00;14.80;99.90
22035;DHT22;11181;51.002;4.356;2022-10-16T05:27:27;14.90;99.90
22035;DHT22;11181;51.002;4.356;2022-10-16T05:29:54;14.90;99.90
22035;DHT22;11181;51.002;4.356;2022-10-16T05:32:21;14.90;99.90
22035;DHT22;11181;51.002;4.356;2022-10-16T05:34:47;14.80;99.90
22035;DHT22;11181;51.002;4.356;2022-10-16T05:37:14;14.80;99.90
22035;DHT22;11181;51.002;4.356;2022-10-16T05:39:43;14.70;99.90
22035;DHT22;11181;51.002;4.356;2022-10-16T05:42:09;14.60;99.90
22035;DHT22;11181;51.002;4.356;2022-10-16T05:44:36;14.60;99.90
22035;DHT22;11181;51.002;4.356;2022-10-16T05:47:03;14.70;99.90
22035;DHT22;11181;51.002;4.356;2022-10-16T05:49:30;14.70;99.90
22035;DHT22;11181;51.002;4.356;2022-10-16T05:51:57;14.70;99.90
22035;DHT22;11181;51.002;4.356;2022-10-16T05:54:24;14.70;99.90
22035;DHT22;11181;51.002;4.356;2022-10-16T05:56:52;14.70;99.90
22035;DHT22;11181;51.002;4.356;2022-10-16T05:59:19;14.70;99.90
22035;DHT22;11181;51.002;4.356;2022-10-16T06:01:46;14.70;99.90
22035;DHT22;11181;51.002;4.356;2022-10-16T06:04:13;14.60;99.90
22035;DHT22;11181;51.002;4.356;2022-10-16T06:06:40;14.60;99.90
22035;DHT22;11181;51.002;4.356;2022-10-16T06:09:07;14.70;99.90
22035;DHT22;11181;51.002;4.356;2022-10-16T06:11:34;14.70;99.90
22035;DHT22;11181;51.002;4.356;2022-10-16T06:14:02;14.80;99.90
22035;DHT22;11181;51.002;4.356;2022-10-16T06:16:33;14.80;99.90
22035;DHT22;11181;51.002;4.356;2022-10-16T06:19:00;14.70;99.90
22035;DHT22;11181;51.002;4.356;2022-10-16T06:21:28;14.70;99.90
22035;DHT22;11181;51.002;4.356;2022-10-16T06:23:56;14.70;99.90
22035;DHT22;11181;51.002;4.356;2022-10-16T06:26:25;14.80;99.90
22035;DHT22;11181;51.002;4.356;2022-10-16T06:28:54;14.80;99.90
22035;DHT22;11181;51.002;4.356;2022-10-16T06:31:22;14.90;99.90
22035;DHT22;11181;51.002;4.356;2022-10-16T06:33:53;14.80;99.90
22035;DHT22;11181;51.002;4.356;2022-10-16T06:36:21;14.80;99.90
22035;DHT22;11181;51.002;4.356;2022-10-16T06:38:48;14.80;99.90
22035;DHT22;11181;51.002;4.356;2022-10-16T06:41:17;14.90;99.90
22035;DHT22;11181;51.002;4.356;2022-10-16T06:43:44;15.00;99.90
22035;DHT22;11181;51.002;4.356;2022-10-16T06:46:12;15.20;99.90
22035;DHT22;11181;51.002;4.356;2022-10-16T06:48:41;15.40;99.90
22035;DHT22;11181;51.002;4.356;2022-10-16T06:51:10;15.60;99.90
22035;DHT22;11181;51.002;4.356;2022-10-16T06:53:39;15.70;99.90
22035;DHT22;11181;51.002;4.356;2022-10-16T06:56:07;15.80;99.90
22035;DHT22;11181;51.002;4.356;2022-10-16T06:58:34;15.90;99.90
22035;DHT22;11181;51.002;4.356;2022-10-16T07:01:01;16.00;99.90
22035;DHT22;11181;51.002;4.356;2022-10-16T07:03:28;16.10;99.90
22035;DHT22;11181;51.002;4.356;2022-10-16T07:05:56;16.20;99.90
22035;DHT22;11181;51.002;4.356;2022-10-16T07:08:23;16.30;99.90
22035;DHT22;11181;51.002;4.356;2022-10-16T07:10:58;16.40;99.90
22035;DHT22;11181;51.002;4.356;2022-10-16T07:13:25;16.40;99.90
22035;DHT22;11181;51.002;4.356;2022-10-16T07:15:52;16.40;99.90
22035;DHT22;11181;51.002;4.356;2022-10-16T07:18:19;16.50;99.90
22035;DHT22;11181;51.002;4.356;2022-10-16T07:20:46;16.60;99.90
22035;DHT22;11181;51.002;4.356;2022-10-16T07:23:14;16.60;99.90
22035;DHT22;11181;51.002;4.356;2022-10-16T07:25:41;16.80;99.90
22035;DHT22;11181;51.002;4.356;2022-10-16T07:28:08;17.00;99.90
22035;DHT22;11181;51.002;4.356;2022-10-16T07:30:35;17.10;99.90
22035;DHT22;11181;51.002;4.356;2022-10-16T07:33:03;17.30;99.90
22035;DHT22;11181;51.002;4.356;2022-10-16T07:35:30;17.50;99.90
22035;DHT22;11181;51.002;4.356;2022-10-16T07:37:57;17.60;99.90
22035;DHT22;11181;51.002;4.356;2022-10-16T07:40:25;17.80;99.90
22035;DHT22;11181;51.002;4.356;2022-10-16T07:42:53;17.80;99.90
22035;DHT22;11181;51.002;4.356;2022-10-16T07:45:20;17.90;99.90
22035;DHT22;11181;51.002;4.356;2022-10-16T07:47:47;17.90;99.90
22035;DHT22;11181;51.002;4.356;2022-10-16T07:50:14;18.00;99.90
22035;DHT22;11181;51.002;4.356;2022-10-16T07:52:41;18.10;99.90
22035;DHT22;11181;51.002;4.356;2022-10-16T07:55:08;18.10;99.90
22035;DHT22;11181;51.002;4.356;2022-10-16T07:57:36;18.30;99.90
22035;DHT22;11181;51.002;4.356;2022-10-16T08:00:04;18.50;99.90
22035;DHT22;11181;51.002;4.356;2022-10-16T08:02:31;18.60;99.90
22035;DHT22;11181;51.002;4.356;2022-10-16T08:04:58;18.90;99.90
22035;DHT22;11181;51.002;4.356;2022-10-16T08:07:25;19.00;99.90
22035;DHT22;11181;51.002;4.356;2022-10-16T08:09:52;19.00;99.90
22035;DHT22;11181;51.002;4.356;2022-10-16T08:12:19;19.20;99.90
22035;DHT22;11181;51.002;4.356;2022-10-16T08:14:48;19.30;99.90
22035;DHT22;11181;51.002;4.356;2022-10-16T08:17:16;19.40;99.90
22035;DHT22;11181;51.002;4.356;2022-10-16T08:19:44;19.50;99.90
22035;DHT22;11181;51.002;4.356;2022-10-16T08:22:15;19.70;99.90
22035;DHT22;11181;51.002;4.356;2022-10-16T08:24:42;19.80;99.90
22035;DHT22;11181;51.002;4.356;2022-10-16T08:27:10;19.90;99.90
22035;DHT22;11181;51.002;4.356;2022-10-16T08:29:38;19.80;99.90
22035;DHT22;11181;51.002;4.356;2022-10-16T08:32:08;19.90;99.90
22035;DHT22;11181;51.002;4.356;2022-10-16T08:34:37;20.10;99.90
22035;DHT22;11181;51.002;4.356;2022-10-16T08:37:05;20.30;99.90
22035;DHT22;11181;51.002;4.356;2022-10-16T08:39:33;20.30;99.90
22035;DHT22;11181;51.002;4.356;2022-10-16T08:42:15;20.50;99.90
22035;DHT22;11181;51.002;4.356;2022-10-16T08:47:54;20.90;99.90
22035;DHT22;11181;51.002;4.356;2022-10-16T08:50:27;21.10;99.90
22035;DHT22;11181;51.002;4.356;2022-10-16T08:52:55;21.20;99.90
22035;DHT22;11181;51.002;4.356;2022-10-16T08:55:38;21.30;99.90
22035;DHT22;11181;51.002;4.356;2022-10-16T08:58:12;21.40;99.90
22035;DHT22;11181;51.002;4.356;2022-10-16T09:00:39;21.50;99.90
22035;DHT22;11181;51.002;4.356;2022-10-16T09:03:17;21.60;99.90
22035;DHT22;11181;51.002;4.356;2022-10-16T09:06:14;21.70;99.90
22035;DHT22;11181;51.002;4.356;2022-10-16T09:08:50;21.90;99.90
22035;DHT22;11181;51.002;4.356;2022-10-16T09:11:26;21.80;99.90
22035;DHT22;11181;51.002;4.356;2022-10-16T09:14:02;21.80;99.90
22035;DHT22;11181;51.002;4.356;2022-10-16T09:16:35;21.80;99.90
22035;DHT22;11181;51.002;4.356;2022-10-16T09:19:12;21.90;99.90
22035;DHT22;11181;51.002;4.356;2022-10-16T09:21:41;22.00;99.90
22035;DHT22;11181;51.002;4.356;2022-10-16T09:24:13;22.00;99.90
22035;DHT22;11181;51.002;4.356;2022-10-16T09:26:41;22.00;99.90
22035;DHT22;11181;51.002;4.356;2022-10-16T09:29:10;22.10;99.90
22035;DHT22;11181;51.002;4.356;2022-10-16T09:31:38;22.20;99.90
22035;DHT22;11181;51.002;4.356;2022-10-16T09:34:08;22.10;99.90
22035;DHT22;11181;51.002;4.356;2022-10-16T09:36:45;22.20;99.90
22035;DHT22;11181;51.002;4.356;2022-10-16T09:39:12;22.30;99.90
22035;DHT22;11181;51.002;4.356;2022-10-16T09:41:41;22.40;99.90
22035;DHT22;11181;51.002;4.356;2022-10-16T09:44:19;22.70;99.90
22035;DHT22;11181;51.002;4.356;2022-10-16T09:46:47;23.00;99.90
22035;DHT22;11181;51.002;4.356;2022-10-16T09:49:23;23.30;99.90
22035;DHT22;11181;51.002;4.356;2022-10-16T09:51:51;23.50;99.90
22035;DHT22;11181;51.002;4.356;2022-10-16T09:54:29;23.70;99.90
22035;DHT22;11181;51.002;4.356;2022-10-16T09:57:04;23.60;99.90
22035;DHT22;11181;51.002;4.356;2022-10-16T09:59:31;23.70;99.90
22035;DHT22;11181;51.002;4.356;2022-10-16T10:02:03;23.70;99.90
22035;DHT22;11181;51.002;4.356;2022-10-16T10:04:41;23.80;99.90
22035;DHT22;11181;51.002;4.356;2022-10-16T10:07:17;24.00;99.90
22035;DHT22;11181;51.002;4.356;2022-10-16T10:09:45;24.20;99.90
22035;DHT22;11181;51.002;4.356;2022-10-16T10:12:19;24.30;99.90
22035;DHT22;11181;51.002;4.356;2022-10-16T10:14:48;24.40;99.90
22035;DHT22;11181;51.002;4.356;2022-10-16T10:17:18;24.50;99.90
22035;DHT22;11181;51.002;4.356;2022-10-16T10:19:49;24.70;99.90
22035;DHT22;11181;51.002;4.356;2022-10-16T10:22:29;24.80;99.90
22035;DHT22;11181;51.002;4.356;2022-10-16T10:24:59;25.00;99.90
22035;DHT22;11181;51.002;4.356;2022-10-16T10:27:34;25.10;99.90
22035;DHT22;11181;51.002;4.356;2022-10-16T10:30:07;25.10;99.90
22035;DHT22;11181;51.002;4.356;2022-10-16T10:32:50;25.20;99.90
22035;DHT22;11181;51.002;4.356;2022-10-16T10:35:24;25.10;99.90
22035;DHT22;11181;51.002;4.356;2022-10-16T10:38:05;25.20;99.90
22035;DHT22;11181;51.002;4.356;2022-10-16T10:40:44;25.40;99.90
22035;DHT22;11181;51.002;4.356;2022-10-16T10:43:25;25.60;99.90
22035;DHT22;11181;51.002;4.356;2022-10-16T10:45:58;25.80;99.90
22035;DHT22;11181;51.002;4.356;2022-10-16T10:48:56;25.80;99.90
22035;DHT22;11181;51.002;4.356;2022-10-16T10:51:38;25.80;99.90
22035;DHT22;11181;51.002;4.356;2022-10-16T10:54:13;25.90;99.90
22035;DHT22;11181;51.002;4.356;2022-10-16T10:56:47;25.90;99.90
22035;DHT22;11181;51.002;4.356;2022-10-16T11:02:21;25.90;99.90
22035;DHT22;11181;51.002;4.356;2022-10-16T11:05:16;26.00;99.90
22035;DHT22;11181;51.002;4.356;2022-10-16T11:07:52;26.20;99.90
22035;DHT22;11181;51.002;4.356;2022-10-16T11:10:23;25.90;99.90
22035;DHT22;11181;51.002;4.356;2022-10-16T11:12:55;25.90;99.90
22035;DHT22;11181;51.002;4.356;2022-10-16T11:15:27;25.90;99.90
22035;DHT22;11181;51.002;4.356;2022-10-16T11:18:00;25.90;99.90
22035;DHT22;11181;51.002;4.356;2022-10-16T11:20:33;26.00;99.90
22035;DHT22;11181;51.002;4.356;2022-10-16T11:23:06;26.20;99.90
22035;DHT22;11181;51.002;4.356;2022-10-16T11:25:34;26.30;99.90
22035;DHT22;11181;51.002;4.356;2022-10-16T11:28:03;26.30;99.90
22035;DHT22;11181;51.002;4.356;2022-10-16T11:30:41;26.50;99.90
22035;DHT22;11181;51.002;4.356;2022-10-16T11:33:22;26.70;99.90
22035;DHT22;11181;51.002;4.356;2022-10-16T11:35:55;26.90;99.90
22035;DHT22;11181;51.002;4.356;2022-10-16T11:38:31;26.70;99.90
22035;DHT22;11181;51.002;4.356;2022-10-16T11:41:03;26.50;99.90
22035;DHT22;11181;51.002;4.356;2022-10-16T11:43:38;26.30;99.90
22035;DHT22;11181;51.002;4.356;2022-10-16T11:46:10;26.40;99.90
22035;DHT22;11181;51.002;4.356;2022-10-16T11:48:43;26.70;99.90
22035;DHT22;11181;51.002;4.356;2022-10-16T11:51:19;26.80;99.90
22035;DHT22;11181;51.002;4.356;2022-10-16T11:53:59;27.10;99.90
22035;DHT22;11181;51.002;4.356;2022-10-16T11:56:28;27.20;99.90
22035;DHT22;11181;51.002;4.356;2022-10-16T11:58:59;27.30;99.90
22035;DHT22;11181;51.002;4.356;2022-10-16T12:01:31;27.30;99.90
22035;DHT22;11181;51.002;4.356;2022-10-16T12:04:11;27.40;99.90
22035;DHT22;11181;51.002;4.356;2022-10-16T12:06:42;27.40;99.90
22035;DHT22;11181;51.002;4.356;2022-10-16T12:09:16;27.40;99.90
22035;DHT22;11181;51.002;4.356;2022-10-16T12:11:46;27.20;99.90
22035;DHT22;11181;51.002;4.356;2022-10-16T12:14:22;27.00;99.90
22035;DHT22;11181;51.002;4.356;2022-10-16T12:17:02;26.80;99.90
22035;DHT22;11181;51.002;4.356;2022-10-16T12:19:31;26.40;99.90
22035;DHT22;11181;51.002;4.356;2022-10-16T12:22:00;25.90;99.90
22035;DHT22;11181;51.002;4.356;2022-10-16T12:24:34;25.70;99.90
22035;DHT22;11181;51.002;4.356;2022-10-16T12:27:01;25.70;99.90
22035;DHT22;11181;51.002;4.356;2022-10-16T12:29:34;26.00;99.90
22035;DHT22;11181;51.002;4.356;2022-10-16T12:32:03;26.00;99.90
22035;DHT22;11181;51.002;4.356;2022-10-16T12:34:37;26.10;99.90
22035;DHT22;11181;51.002;4.356;2022-10-16T12:37:11;26.10;99.90
22035;DHT22;11181;51.002;4.356;2022-10-16T12:39:41;26.20;99.90
22035;DHT22;11181;51.002;4.356;2022-10-16T12:42:22;26.20;99.90
22035;DHT22;11181;51.002;4.356;2022-10-16T12:44:49;26.00;99.90
22035;DHT22;11181;51.002;4.356;2022-10-16T12:47:21;25.90;99.90
22035;DHT22;11181;51.002;4.356;2022-10-16T12:49:51;25.70;99.90
22035;DHT22;11181;51.002;4.356;2022-10-16T12:52:26;25.50;99.90
22035;DHT22;11181;51.002;4.356;2022-10-16T12:54:58;25.20;99.90
22035;DHT22;11181;51.002;4.356;2022-10-16T12:57:42;25.10;99.90
22035;DHT22;11181;51.002;4.356;2022-10-16T13:00:18;25.00;99.90
22035;DHT22;11181;51.002;4.356;2022-10-16T13:03:19;25.00;99.90
22035;DHT22;11181;51.002;4.356;2022-10-16T13:06:00;24.90;99.90
22035;DHT22;11181;51.002;4.356;2022-10-16T13:08:40;24.90;99.90
22035;DHT22;11181;51.002;4.356;2022-10-16T13:11:19;24.90;99.90
22035;DHT22;11181;51.002;4.356;2022-10-16T13:14:09;24.90;99.90
22035;DHT22;11181;51.002;4.356;2022-10-16T13:16:52;24.80;99.90
22035;DHT22;11181;51.002;4.356;2022-10-16T13:19:29;24.70;99.90
22035;DHT22;11181;51.002;4.356;2022-10-16T13:22:05;24.30;99.90
22035;DHT22;11181;51.002;4.356;2022-10-16T13:24:47;24.10;99.90
22035;DHT22;11181;51.002;4.356;2022-10-16T13:27:23;24.00;99.90
22035;DHT22;11181;51.002;4.356;2022-10-16T13:29:54;23.90;99.90
22035;DHT22;11181;51.002;4.356;2022-10-16T13:32:27;23.90;99.90
22035;DHT22;11181;51.002;4.356;2022-10-16T13:34:54;23.90;99.90
22035;DHT22;11181;51.002;4.356;2022-10-16T13:37:23;23.80;99.90
22035;DHT22;11181;51.002;4.356;2022-10-16T13:39:50;23.90;99.90
22035;DHT22;11181;51.002;4.356;2022-10-16T13:42:24;23.90;99.90
22035;DHT22;11181;51.002;4.356;2022-10-16T13:44:53;23.80;99.90
22035;DHT22;11181;51.002;4.356;2022-10-16T13:47:22;23.70;99.90
22035;DHT22;11181;51.002;4.356;2022-10-16T13:49:59;23.60;99.90
22035;DHT22;11181;51.002;4.356;2022-10-16T13:52:26;23.50;99.90
22035;DHT22;11181;51.002;4.356;2022-10-16T13:54:53;23.50;99.90
22035;DHT22;11181;51.002;4.356;2022-10-16T13:57:23;23.50;99.90
22035;DHT22;11181;51.002;4.356;2022-10-16T13:59:51;23.50;99.90
22035;DHT22;11181;51.002;4.356;2022-10-16T14:02:22;23.50;99.90
22035;DHT22;11181;51.002;4.356;2022-10-16T14:04:51;23.40;99.90
22035;DHT22;11181;51.002;4.356;2022-10-16T14:07:23;23.40;99.90
22035;DHT22;11181;51.002;4.356;2022-10-16T14:09:52;23.50;99.90
22035;DHT22;11181;51.002;4.356;2022-10-16T14:12:19;23.40;99.90
22035;DHT22;11181;51.002;4.356;2022-10-16T14:14:51;23.50;99.90
22035;DHT22;11181;51.002;4.356;2022-10-16T14:17:20;23.40;99.90
22035;DHT22;11181;51.002;4.356;2022-10-16T14:19:49;23.30;99.90
22035;DHT22;11181;51.002;4.356;2022-10-16T14:22:28;23.30;99.90
22035;DHT22;11181;51.002;4.356;2022-10-16T14:24:56;23.30;99.90
22035;DHT22;11181;51.002;4.356;2022-10-16T14:27:30;23.50;99.90
22035;DHT22;11181;51.002;4.356;2022-10-16T14:30:14;23.50;99.90
22035;DHT22;11181;51.002;4.356;2022-10-16T14:32:42;23.50;99.90
22035;DHT22;11181;51.002;4.356;2022-10-16T14:35:27;23.50;99.90
22035;DHT22;11181;51.002;4.356;2022-10-16T14:37:55;23.40;99.90
22035;DHT22;11181;51.002;4.356;2022-10-16T14:40:24;23.30;99.90
22035;DHT22;11181;51.002;4.356;2022-10-16T14:42:51;23.20;99.90
22035;DHT22;11181;51.002;4.356;2022-10-16T14:45:22;23.20;99.90
22035;DHT22;11181;51.002;4.356;2022-10-16T14:47:51;23.20;99.90
22035;DHT22;11181;51.002;4.356;2022-10-16T14:50:19;23.20;99.90
22035;DHT22;11181;51.002;4.356;2022-10-16T14:52:46;23.30;99.90
22035;DHT22;11181;51.002;4.356;2022-10-16T14:55:13;23.30;99.90
22035;DHT22;11181;51.002;4.356;2022-10-16T14:57:41;23.30;99.90
22035;DHT22;11181;51.002;4.356;2022-10-16T15:00:15;23.30;99.90
22035;DHT22;11181;51.002;4.356;2022-10-16T15:02:44;23.40;99.90
22035;DHT22;11181;51.002;4.356;2022-10-16T15:05:15;23.30;99.90
22035;DHT22;11181;51.002;4.356;2022-10-16T15:07:42;23.20;99.90
22035;DHT22;11181;51.002;4.356;2022-10-16T15:10:09;23.00;99.90
22035;DHT22;11181;51.002;4.356;2022-10-16T15:12:36;23.00;99.90
22035;DHT22;11181;51.002;4.356;2022-10-16T15:15:20;22.80;99.90
22035;DHT22;11181;51.002;4.356;2022-10-16T15:17:50;22.80;99.90
22035;DHT22;11181;51.002;4.356;2022-10-16T15:20:19;22.80;99.90
22035;DHT22;11181;51.002;4.356;2022-10-16T15:22:46;22.80;99.90
22035;DHT22;11181;51.002;4.356;2022-10-16T15:25:24;22.90;99.90
22035;DHT22;11181;51.002;4.356;2022-10-16T15:27:52;23.00;99.90
22035;DHT22;11181;51.002;4.356;2022-10-16T15:30:19;23.00;99.90
22035;DHT22;11181;51.002;4.356;2022-10-16T15:32:46;23.20;99.90
22035;DHT22;11181;51.002;4.356;2022-10-16T15:35:16;23.20;99.90
22035;DHT22;11181;51.002;4.356;2022-10-16T15:37:46;23.20;99.90
22035;DHT22;11181;51.002;4.356;2022-10-16T15:40:17;23.20;99.90
22035;DHT22;11181;51.002;4.356;2022-10-16T15:42:46;23.20;99.90
22035;DHT22;11181;51.002;4.356;2022-10-16T15:45:17;23.10;99.90
22035;DHT22;11181;51.002;4.356;2022-10-16T15:47:46;23.00;99.90
22035;DHT22;11181;51.002;4.356;2022-10-16T15:50:15;22.90;99.90
22035;DHT22;11181;51.002;4.356;2022-10-16T15:52:43;22.70;99.90
22035;DHT22;11181;51.002;4.356;2022-10-16T15:55:11;22.70;99.90